sensor_id;sensor_type;location;lat;lon;timestamp;P1;durP1;ratioP1;P2;durP2;ratioP2
70560;SDS011;58109;53.570;10.084;2022-08-14T00:00:51;3.00;;;2.70;;
70560;SDS011;58109;53.570;10.084;2022-08-14T00:03:21;3.30;;;3.00;;
70560;SDS011;58109;53.570;10.084;2022-08-14T00:05:51;3.20;;;2.90;;
70560;SDS011;58109;53.570;10.084;2022-08-14T00:08:19;4.23;;;2.73;;
70560;SDS011;58109;53.570;10.084;2022-08-14T00:10:45;5.17;;;3.10;;
70560;SDS011;58109;53.570;10.084;2022-08-14T00:13:11;4.67;;;2.60;;
70560;SDS011;58109;53.570;10.084;2022-08-14T00:15:37;3.27;;;2.93;;
70560;SDS011;58109;53.570;10.084;2022-08-14T00:18:08;6.70;;;3.40;;
70560;SDS011;58109;53.570;10.084;2022-08-14T00:20:38;3.77;;;2.97;;
70560;SDS011;58109;53.570;10.084;2022-08-14T00:23:10;5.23;;;2.83;;
70560;SDS011;58109;53.570;10.084;2022-08-14T00:25:39;3.00;;;2.63;;
70560;SDS011;58109;53.570;10.084;2022-08-14T00:28:07;3.67;;;2.73;;
70560;SDS011;58109;53.570;10.084;2022-08-14T00:30:37;3.00;;;2.60;;
70560;SDS011;58109;53.570;10.084;2022-08-14T00:33:03;5.03;;;3.20;;
70560;SDS011;58109;53.570;10.084;2022-08-14T00:35:29;4.90;;;3.07;;
70560;SDS011;58109;53.570;10.084;2022-08-14T00:37:54;3.07;;;2.77;;
70560;SDS011;58109;53.570;10.084;2022-08-14T00:40:20;8.90;;;2.93;;
70560;SDS011;58109;53.570;10.084;2022-08-14T00:42:48;3.80;;;3.03;;
70560;SDS011;58109;53.570;10.084;2022-08-14T00:45:14;7.37;;;4.10;;
70560;SDS011;58109;53.570;10.084;2022-08-14T00:47:41;3.40;;;2.77;;
70560;SDS011;58109;53.570;10.084;2022-08-14T00:50:14;6.73;;;3.20;;
70560;SDS011;58109;53.570;10.084;2022-08-14T00:52:47;7.03;;;2.90;;
70560;SDS011;58109;53.570;10.084;2022-08-14T00:55:13;4.93;;;2.53;;
70560;SDS011;58109;53.570;10.084;2022-08-14T00:57:39;4.70;;;2.60;;
70560;SDS011;58109;53.570;10.084;2022-08-14T01:00:12;4.70;;;2.93;;
70560;SDS011;58109;53.570;10.084;2022-08-14T01:03:01;7.57;;;3.30;;
70560;SDS011;58109;53.570;10.084;2022-08-14T01:05:28;7.90;;;2.83;;
70560;SDS011;58109;53.570;10.084;2022-08-14T01:07:56;5.10;;;3.10;;
70560;SDS011;58109;53.570;10.084;2022-08-14T01:10:23;23.47;;;3.80;;
70560;SDS011;58109;53.570;10.084;2022-08-14T01:13:10;13.33;;;3.03;;
70560;SDS011;58109;53.570;10.084;2022-08-14T01:15:38;7.53;;;2.90;;
70560;SDS011;58109;53.570;10.084;2022-08-14T01:18:05;5.17;;;2.80;;
70560;SDS011;58109;53.570;10.084;2022-08-14T01:20:49;4.73;;;2.57;;
70560;SDS011;58109;53.570;10.084;2022-08-14T01:23:27;4.77;;;3.07;;
70560;SDS011;58109;53.570;10.084;2022-08-14T01:25:54;4.90;;;2.67;;
70560;SDS011;58109;53.570;10.084;2022-08-14T01:28:20;7.77;;;3.00;;
70560;SDS011;58109;53.570;10.084;2022-08-14T01:30:50;4.33;;;2.90;;
70560;SDS011;58109;53.570;10.084;2022-08-14T01:33:20;8.47;;;2.93;;
70560;SDS011;58109;53.570;10.084;2022-08-14T01:35:46;3.67;;;2.57;;
70560;SDS011;58109;53.570;10.084;2022-08-14T01:38:14;6.63;;;2.93;;
70560;SDS011;58109;53.570;10.084;2022-08-14T01:40:39;3.73;;;2.70;;
70560;SDS011;58109;53.570;10.084;2022-08-14T01:43:09;11.53;;;3.10;;
70560;SDS011;58109;53.570;10.084;2022-08-14T01:45:38;5.93;;;2.83;;
70560;SDS011;58109;53.570;10.084;2022-08-14T01:48:05;6.40;;;2.50;;
70560;SDS011;58109;53.570;10.084;2022-08-14T01:50:31;7.93;;;3.50;;
70560;SDS011;58109;53.570;10.084;2022-08-14T01:52:58;8.30;;;2.63;;
70560;SDS011;58109;53.570;10.084;2022-08-14T01:55:29;9.10;;;2.70;;
70560;SDS011;58109;53.570;10.084;2022-08-14T01:57:55;5.87;;;2.70;;
70560;SDS011;58109;53.570;10.084;2022-08-14T02:00:24;5.93;;;2.70;;
70560;SDS011;58109;53.570;10.084;2022-08-14T02:02:49;5.83;;;2.83;;
70560;SDS011;58109;53.570;10.084;2022-08-14T02:05:17;5.50;;;2.60;;
70560;SDS011;58109;53.570;10.084;2022-08-14T02:07:42;4.23;;;2.67;;
70560;SDS011;58109;53.570;10.084;2022-08-14T02:10:12;4.87;;;2.87;;
70560;SDS011;58109;53.570;10.084;2022-08-14T02:12:38;9.97;;;3.03;;
70560;SDS011;58109;53.570;10.084;2022-08-14T02:15:05;3.37;;;2.70;;
70560;SDS011;58109;53.570;10.084;2022-08-14T02:17:33;2.80;;;2.50;;
70560;SDS011;58109;53.570;10.084;2022-08-14T02:19:59;3.23;;;3.03;;
70560;SDS011;58109;53.570;10.084;2022-08-14T02:22:25;7.10;;;3.20;;
70560;SDS011;58109;53.570;10.084;2022-08-14T02:24:50;5.20;;;2.73;;
70560;SDS011;58109;53.570;10.084;2022-08-14T02:27:16;7.93;;;3.10;;
70560;SDS011;58109;53.570;10.084;2022-08-14T02:29:42;8.70;;;3.43;;
70560;SDS011;58109;53.570;10.084;2022-08-14T02:32:12;7.80;;;2.90;;
70560;SDS011;58109;53.570;10.084;2022-08-14T02:34:42;5.20;;;3.40;;
70560;SDS011;58109;53.570;10.084;2022-08-14T02:37:10;4.73;;;2.80;;
70560;SDS011;58109;53.570;10.084;2022-08-14T02:39:42;7.40;;;3.27;;
70560;SDS011;58109;53.570;10.084;2022-08-14T02:42:11;6.70;;;3.17;;
70560;SDS011;58109;53.570;10.084;2022-08-14T02:44:40;6.40;;;2.63;;
70560;SDS011;58109;53.570;10.084;2022-08-14T02:47:07;8.23;;;2.73;;
70560;SDS011;58109;53.570;10.084;2022-08-14T02:49:33;4.00;;;3.20;;
70560;SDS011;58109;53.570;10.084;2022-08-14T02:51:59;21.30;;;2.73;;
70560;SDS011;58109;53.570;10.084;2022-08-14T02:54:27;3.47;;;2.40;;
70560;SDS011;58109;53.570;10.084;2022-08-14T02:56:55;5.23;;;2.63;;
70560;SDS011;58109;53.570;10.084;2022-08-14T02:59:24;3.40;;;3.10;;
70560;SDS011;58109;53.570;10.084;2022-08-14T03:01:53;5.17;;;3.47;;
70560;SDS011;58109;53.570;10.084;2022-08-14T03:04:20;7.63;;;2.93;;
70560;SDS011;58109;53.570;10.084;2022-08-14T03:06:45;3.77;;;3.30;;
70560;SDS011;58109;53.570;10.084;2022-08-14T03:09:13;7.03;;;3.60;;
70560;SDS011;58109;53.570;10.084;2022-08-14T03:11:39;5.10;;;2.70;;
70560;SDS011;58109;53.570;10.084;2022-08-14T03:14:06;8.93;;;3.47;;
70560;SDS011;58109;53.570;10.084;2022-08-14T03:16:36;6.90;;;3.20;;
70560;SDS011;58109;53.570;10.084;2022-08-14T03:19:03;5.27;;;2.87;;
70560;SDS011;58109;53.570;10.084;2022-08-14T03:21:34;3.70;;;3.33;;
70560;SDS011;58109;53.570;10.084;2022-08-14T03:24:01;6.43;;;3.10;;
70560;SDS011;58109;53.570;10.084;2022-08-14T03:26:33;4.53;;;2.80;;
70560;SDS011;58109;53.570;10.084;2022-08-14T03:28:59;3.43;;;2.90;;
70560;SDS011;58109;53.570;10.084;2022-08-14T03:31:26;7.00;;;3.10;;
70560;SDS011;58109;53.570;10.084;2022-08-14T03:33:51;5.57;;;2.70;;
70560;SDS011;58109;53.570;10.084;2022-08-14T03:36:18;12.83;;;3.40;;
70560;SDS011;58109;53.570;10.084;2022-08-14T03:38:48;4.33;;;2.50;;
70560;SDS011;58109;53.570;10.084;2022-08-14T03:41:16;4.17;;;2.20;;
70560;SDS011;58109;53.570;10.084;2022-08-14T03:43:49;3.27;;;2.50;;
70560;SDS011;58109;53.570;10.084;2022-08-14T03:46:16;2.93;;;2.63;;
70560;SDS011;58109;53.570;10.084;2022-08-14T03:48:44;4.90;;;2.97;;
70560;SDS011;58109;53.570;10.084;2022-08-14T03:51:10;4.53;;;2.73;;
70560;SDS011;58109;53.570;10.084;2022-08-14T03:53:38;5.73;;;2.77;;
70560;SDS011;58109;53.570;10.084;2022-08-14T03:56:10;7.93;;;2.83;;
70560;SDS011;58109;53.570;10.084;2022-08-14T03:58:45;6.20;;;2.47;;
70560;SDS011;58109;53.570;10.084;2022-08-14T04:01:12;7.50;;;2.87;;
70560;SDS011;58109;53.570;10.084;2022-08-14T04:03:39;10.17;;;3.27;;
70560;SDS011;58109;53.570;10.084;2022-08-14T04:06:05;4.93;;;2.63;;
70560;SDS011;58109;53.570;10.084;2022-08-14T04:08:36;4.03;;;2.47;;
70560;SDS011;58109;53.570;10.084;2022-08-14T04:11:08;6.80;;;2.37;;
70560;SDS011;58109;53.570;10.084;2022-08-14T04:13:35;5.20;;;3.10;;
70560;SDS011;58109;53.570;10.084;2022-08-14T04:16:07;4.30;;;2.60;;
70560;SDS011;58109;53.570;10.084;2022-08-14T04:18:37;11.97;;;3.10;;
70560;SDS011;58109;53.570;10.084;2022-08-14T04:21:05;10.97;;;3.17;;
70560;SDS011;58109;53.570;10.084;2022-08-14T04:23:31;7.50;;;2.60;;
70560;SDS011;58109;53.570;10.084;2022-08-14T04:25:57;6.97;;;2.60;;
70560;SDS011;58109;53.570;10.084;2022-08-14T04:28:22;4.87;;;2.73;;
70560;SDS011;58109;53.570;10.084;2022-08-14T04:30:53;5.03;;;2.50;;
70560;SDS011;58109;53.570;10.084;2022-08-14T04:33:20;5.23;;;2.90;;
70560;SDS011;58109;53.570;10.084;2022-08-14T04:35:48;4.80;;;2.60;;
70560;SDS011;58109;53.570;10.084;2022-08-14T04:38:15;8.20;;;2.40;;
70560;SDS011;58109;53.570;10.084;2022-08-14T04:41:00;9.90;;;2.63;;
70560;SDS011;58109;53.570;10.084;2022-08-14T04:43:44;5.77;;;2.93;;
70560;SDS011;58109;53.570;10.084;2022-08-14T04:46:10;13.77;;;3.13;;
70560;SDS011;58109;53.570;10.084;2022-08-14T04:48:39;3.77;;;2.40;;
70560;SDS011;58109;53.570;10.084;2022-08-14T04:51:06;7.03;;;3.30;;
70560;SDS011;58109;53.570;10.084;2022-08-14T04:53:34;11.03;;;2.80;;
70560;SDS011;58109;53.570;10.084;2022-08-14T04:56:08;7.77;;;3.03;;
70560;SDS011;58109;53.570;10.084;2022-08-14T04:58:35;4.70;;;2.30;;
70560;SDS011;58109;53.570;10.084;2022-08-14T05:01:06;8.03;;;2.90;;
70560;SDS011;58109;53.570;10.084;2022-08-14T05:03:37;6.60;;;2.90;;
70560;SDS011;58109;53.570;10.084;2022-08-14T05:06:04;6.47;;;2.60;;
70560;SDS011;58109;53.570;10.084;2022-08-14T05:08:35;8.20;;;3.00;;
70560;SDS011;58109;53.570;10.084;2022-08-14T05:11:01;14.07;;;3.23;;
70560;SDS011;58109;53.570;10.084;2022-08-14T05:13:29;6.77;;;2.53;;
70560;SDS011;58109;53.570;10.084;2022-08-14T05:16:00;11.33;;;2.70;;
70560;SDS011;58109;53.570;10.084;2022-08-14T05:18:28;4.93;;;2.63;;
70560;SDS011;58109;53.570;10.084;2022-08-14T05:20:56;8.50;;;2.80;;
70560;SDS011;58109;53.570;10.084;2022-08-14T05:23:28;10.07;;;2.80;;
70560;SDS011;58109;53.570;10.084;2022-08-14T05:25:58;7.23;;;3.30;;
70560;SDS011;58109;53.570;10.084;2022-08-14T05:28:31;2.70;;;2.50;;
70560;SDS011;58109;53.570;10.084;2022-08-14T05:30:59;8.83;;;2.90;;
70560;SDS011;58109;53.570;10.084;2022-08-14T05:33:26;8.33;;;3.10;;
70560;SDS011;58109;53.570;10.084;2022-08-14T05:35:53;4.23;;;2.70;;
70560;SDS011;58109;53.570;10.084;2022-08-14T05:38:32;6.80;;;2.70;;
70560;SDS011;58109;53.570;10.084;2022-08-14T05:41:00;5.30;;;2.50;;
70560;SDS011;58109;53.570;10.084;2022-08-14T05:43:27;8.90;;;3.13;;
70560;SDS011;58109;53.570;10.084;2022-08-14T05:45:53;7.40;;;2.97;;
70560;SDS011;58109;53.570;10.084;2022-08-14T05:48:18;7.60;;;2.90;;
70560;SDS011;58109;53.570;10.084;2022-08-14T05:50:46;6.87;;;3.33;;
70560;SDS011;58109;53.570;10.084;2022-08-14T05:53:12;5.87;;;2.77;;
70560;SDS011;58109;53.570;10.084;2022-08-14T05:55:37;4.60;;;2.63;;
70560;SDS011;58109;53.570;10.084;2022-08-14T05:58:06;8.47;;;2.70;;
70560;SDS011;58109;53.570;10.084;2022-08-14T06:00:36;17.40;;;3.40;;
70560;SDS011;58109;53.570;10.084;2022-08-14T06:03:09;6.20;;;3.00;;
70560;SDS011;58109;53.570;10.084;2022-08-14T06:05:43;5.70;;;2.70;;
70560;SDS011;58109;53.570;10.084;2022-08-14T06:10:44;5.30;;;2.53;;
70560;SDS011;58109;53.570;10.084;2022-08-14T06:13:12;5.73;;;2.40;;
70560;SDS011;58109;53.570;10.084;2022-08-14T06:15:38;3.80;;;2.47;;
70560;SDS011;58109;53.570;10.084;2022-08-14T06:18:03;5.93;;;2.90;;
70560;SDS011;58109;53.570;10.084;2022-08-14T06:20:29;8.43;;;3.27;;
70560;SDS011;58109;53.570;10.084;2022-08-14T06:22:54;7.43;;;2.80;;
70560;SDS011;58109;53.570;10.084;2022-08-14T06:25:20;6.33;;;2.40;;
70560;SDS011;58109;53.570;10.084;2022-08-14T06:27:46;7.53;;;2.90;;
70560;SDS011;58109;53.570;10.084;2022-08-14T06:30:18;23.13;;;3.40;;
70560;SDS011;58109;53.570;10.084;2022-08-14T06:32:47;16.63;;;3.50;;
70560;SDS011;58109;53.570;10.084;2022-08-14T06:35:13;13.63;;;3.27;;
70560;SDS011;58109;53.570;10.084;2022-08-14T06:40:14;7.40;;;2.67;;
70560;SDS011;58109;53.570;10.084;2022-08-14T06:42:42;11.97;;;3.07;;
70560;SDS011;58109;53.570;10.084;2022-08-14T06:45:08;7.50;;;3.50;;
70560;SDS011;58109;53.570;10.084;2022-08-14T06:47:37;4.67;;;3.33;;
70560;SDS011;58109;53.570;10.084;2022-08-14T06:50:07;6.33;;;3.10;;
70560;SDS011;58109;53.570;10.084;2022-08-14T06:52:39;4.80;;;3.03;;
70560;SDS011;58109;53.570;10.084;2022-08-14T06:55:05;6.67;;;3.10;;
70560;SDS011;58109;53.570;10.084;2022-08-14T06:57:50;10.73;;;2.90;;
70560;SDS011;58109;53.570;10.084;2022-08-14T07:00:23;4.30;;;2.97;;
70560;SDS011;58109;53.570;10.084;2022-08-14T07:02:57;4.27;;;2.63;;
70560;SDS011;58109;53.570;10.084;2022-08-14T07:05:41;10.27;;;3.50;;
70560;SDS011;58109;53.570;10.084;2022-08-14T07:08:26;10.90;;;3.40;;
70560;SDS011;58109;53.570;10.084;2022-08-14T07:10:54;6.60;;;3.17;;
70560;SDS011;58109;53.570;10.084;2022-08-14T07:13:20;5.20;;;3.10;;
70560;SDS011;58109;53.570;10.084;2022-08-14T07:15:47;8.10;;;3.40;;
70560;SDS011;58109;53.570;10.084;2022-08-14T07:18:21;6.70;;;2.90;;
70560;SDS011;58109;53.570;10.084;2022-08-14T07:20:48;10.13;;;3.33;;
70560;SDS011;58109;53.570;10.084;2022-08-14T07:23:14;11.00;;;3.17;;
70560;SDS011;58109;53.570;10.084;2022-08-14T07:25:41;11.87;;;3.27;;
70560;SDS011;58109;53.570;10.084;2022-08-14T07:28:14;15.70;;;3.30;;
70560;SDS011;58109;53.570;10.084;2022-08-14T07:30:45;7.63;;;3.23;;
70560;SDS011;58109;53.570;10.084;2022-08-14T07:33:11;7.33;;;3.23;;
70560;SDS011;58109;53.570;10.084;2022-08-14T07:35:37;6.20;;;3.07;;
70560;SDS011;58109;53.570;10.084;2022-08-14T07:38:05;9.10;;;3.70;;
70560;SDS011;58109;53.570;10.084;2022-08-14T07:40:30;8.53;;;3.60;;
70560;SDS011;58109;53.570;10.084;2022-08-14T07:42:56;16.70;;;3.67;;
70560;SDS011;58109;53.570;10.084;2022-08-14T07:45:21;5.00;;;3.57;;
70560;SDS011;58109;53.570;10.084;2022-08-14T07:47:47;17.50;;;3.60;;
70560;SDS011;58109;53.570;10.084;2022-08-14T07:50:16;9.47;;;3.60;;
70560;SDS011;58109;53.570;10.084;2022-08-14T07:52:44;9.37;;;3.80;;
70560;SDS011;58109;53.570;10.084;2022-08-14T07:55:14;8.50;;;3.50;;
70560;SDS011;58109;53.570;10.084;2022-08-14T07:57:43;6.00;;;3.70;;
70560;SDS011;58109;53.570;10.084;2022-08-14T08:00:14;11.97;;;4.00;;
70560;SDS011;58109;53.570;10.084;2022-08-14T08:02:43;21.30;;;4.20;;
70560;SDS011;58109;53.570;10.084;2022-08-14T08:05:12;14.37;;;4.10;;
70560;SDS011;58109;53.570;10.084;2022-08-14T08:07:39;14.97;;;6.10;;
70560;SDS011;58109;53.570;10.084;2022-08-14T08:10:12;6.10;;;3.70;;
70560;SDS011;58109;53.570;10.084;2022-08-14T08:15:30;6.07;;;3.73;;
70560;SDS011;58109;53.570;10.084;2022-08-14T08:17:58;12.03;;;3.80;;
70560;SDS011;58109;53.570;10.084;2022-08-14T08:20:27;10.10;;;4.40;;
70560;SDS011;58109;53.570;10.084;2022-08-14T08:22:52;7.40;;;3.60;;
70560;SDS011;58109;53.570;10.084;2022-08-14T08:25:20;10.83;;;4.23;;
70560;SDS011;58109;53.570;10.084;2022-08-14T08:30:29;5.93;;;3.40;;
70560;SDS011;58109;53.570;10.084;2022-08-14T08:32:56;8.37;;;3.53;;
70560;SDS011;58109;53.570;10.084;2022-08-14T08:35:29;5.67;;;3.53;;
70560;SDS011;58109;53.570;10.084;2022-08-14T08:44:18;11.20;;;4.40;;
70560;SDS011;58109;53.570;10.084;2022-08-14T08:46:46;7.80;;;4.20;;
70560;SDS011;58109;53.570;10.084;2022-08-14T08:49:21;16.93;;;4.77;;
70560;SDS011;58109;53.570;10.084;2022-08-14T08:51:46;9.20;;;4.17;;
70560;SDS011;58109;53.570;10.084;2022-08-14T08:54:15;9.13;;;3.80;;
70560;SDS011;58109;53.570;10.084;2022-08-14T08:56:44;6.53;;;5.27;;
70560;SDS011;58109;53.570;10.084;2022-08-14T08:59:30;14.00;;;6.00;;
70560;SDS011;58109;53.570;10.084;2022-08-14T09:01:59;10.90;;;4.40;;
70560;SDS011;58109;53.570;10.084;2022-08-14T09:04:37;9.97;;;5.30;;
70560;SDS011;58109;53.570;10.084;2022-08-14T09:07:06;8.60;;;4.33;;
70560;SDS011;58109;53.570;10.084;2022-08-14T09:09:34;10.83;;;4.77;;
70560;SDS011;58109;53.570;10.084;2022-08-14T09:12:15;10.90;;;5.13;;
70560;SDS011;58109;53.570;10.084;2022-08-14T09:14:48;18.23;;;5.27;;
70560;SDS011;58109;53.570;10.084;2022-08-14T09:17:17;6.43;;;4.13;;
70560;SDS011;58109;53.570;10.084;2022-08-14T09:19:42;12.43;;;4.33;;
70560;SDS011;58109;53.570;10.084;2022-08-14T09:22:08;8.37;;;5.03;;
70560;SDS011;58109;53.570;10.084;2022-08-14T09:24:35;14.97;;;5.00;;
70560;SDS011;58109;53.570;10.084;2022-08-14T09:27:02;9.93;;;6.00;;
70560;SDS011;58109;53.570;10.084;2022-08-14T09:29:34;14.10;;;4.33;;
70560;SDS011;58109;53.570;10.084;2022-08-14T09:32:02;12.70;;;5.53;;
70560;SDS011;58109;53.570;10.084;2022-08-14T09:46:09;11.43;;;4.83;;
70560;SDS011;58109;53.570;10.084;2022-08-14T09:48:37;9.40;;;4.80;;
70560;SDS011;58109;53.570;10.084;2022-08-14T09:54:17;9.93;;;5.10;;
70560;SDS011;58109;53.570;10.084;2022-08-14T09:56:46;10.33;;;5.83;;
70560;SDS011;58109;53.570;10.084;2022-08-14T09:59:14;9.73;;;5.67;;
70560;SDS011;58109;53.570;10.084;2022-08-14T10:01:42;8.73;;;5.90;;
70560;SDS011;58109;53.570;10.084;2022-08-14T10:04:20;15.37;;;6.47;;
70560;SDS011;58109;53.570;10.084;2022-08-14T10:06:48;32.20;;;21.10;;
70560;SDS011;58109;53.570;10.084;2022-08-14T10:09:15;16.13;;;6.47;;
70560;SDS011;58109;53.570;10.084;2022-08-14T10:11:57;26.10;;;7.60;;
70560;SDS011;58109;53.570;10.084;2022-08-14T10:14:27;14.03;;;6.83;;
70560;SDS011;58109;53.570;10.084;2022-08-14T10:16:55;15.00;;;7.80;;
70560;SDS011;58109;53.570;10.084;2022-08-14T10:19:23;12.33;;;6.10;;
70560;SDS011;58109;53.570;10.084;2022-08-14T10:24:28;22.93;;;6.23;;
70560;SDS011;58109;53.570;10.084;2022-08-14T10:26:57;20.50;;;6.50;;
70560;SDS011;58109;53.570;10.084;2022-08-14T10:29:31;18.27;;;8.60;;
70560;SDS011;58109;53.570;10.084;2022-08-14T10:32:00;17.10;;;10.00;;
70560;SDS011;58109;53.570;10.084;2022-08-14T10:34:30;16.37;;;7.50;;
70560;SDS011;58109;53.570;10.084;2022-08-14T10:37:04;14.30;;;5.27;;
70560;SDS011;58109;53.570;10.084;2022-08-14T10:39:32;13.00;;;6.40;;
70560;SDS011;58109;53.570;10.084;2022-08-14T10:42:01;15.27;;;7.10;;
70560;SDS011;58109;53.570;10.084;2022-08-14T10:44:45;10.20;;;5.43;;
70560;SDS011;58109;53.570;10.084;2022-08-14T10:47:15;14.53;;;5.77;;
70560;SDS011;58109;53.570;10.084;2022-08-14T10:49:55;15.00;;;6.80;;
70560;SDS011;58109;53.570;10.084;2022-08-14T10:52:24;14.57;;;7.40;;
70560;SDS011;58109;53.570;10.084;2022-08-14T10:55:03;10.63;;;6.60;;
70560;SDS011;58109;53.570;10.084;2022-08-14T10:57:33;14.03;;;6.60;;
70560;SDS011;58109;53.570;10.084;2022-08-14T11:00:11;9.90;;;6.20;;
70560;SDS011;58109;53.570;10.084;2022-08-14T11:02:42;13.23;;;5.77;;
70560;SDS011;58109;53.570;10.084;2022-08-14T11:05:20;16.27;;;6.53;;
70560;SDS011;58109;53.570;10.084;2022-08-14T11:10:21;9.03;;;5.67;;
70560;SDS011;58109;53.570;10.084;2022-08-14T11:12:50;20.80;;;6.37;;
70560;SDS011;58109;53.570;10.084;2022-08-14T11:15:21;12.33;;;6.47;;
70560;SDS011;58109;53.570;10.084;2022-08-14T11:17:51;18.73;;;8.27;;
70560;SDS011;58109;53.570;10.084;2022-08-14T11:20:21;20.17;;;10.07;;
70560;SDS011;58109;53.570;10.084;2022-08-14T11:22:52;28.27;;;9.20;;
70560;SDS011;58109;53.570;10.084;2022-08-14T11:25:19;16.60;;;7.80;;
70560;SDS011;58109;53.570;10.084;2022-08-14T11:27:47;31.97;;;10.60;;
70560;SDS011;58109;53.570;10.084;2022-08-14T11:30:18;85.30;;;19.70;;
70560;SDS011;58109;53.570;10.084;2022-08-14T11:32:47;60.07;;;18.30;;
70560;SDS011;58109;53.570;10.084;2022-08-14T11:35:19;70.87;;;16.80;;
70560;SDS011;58109;53.570;10.084;2022-08-14T11:37:56;45.40;;;13.13;;
70560;SDS011;58109;53.570;10.084;2022-08-14T11:40:31;17.00;;;7.23;;
70560;SDS011;58109;53.570;10.084;2022-08-14T11:43:02;34.17;;;9.80;;
70560;SDS011;58109;53.570;10.084;2022-08-14T11:45:30;23.73;;;8.70;;
70560;SDS011;58109;53.570;10.084;2022-08-14T11:48:23;25.50;;;9.20;;
70560;SDS011;58109;53.570;10.084;2022-08-14T11:50:49;18.83;;;8.23;;
70560;SDS011;58109;53.570;10.084;2022-08-14T11:53:22;20.53;;;8.30;;
70560;SDS011;58109;53.570;10.084;2022-08-14T11:55:56;26.27;;;7.77;;
70560;SDS011;58109;53.570;10.084;2022-08-14T11:58:26;16.73;;;7.53;;
70560;SDS011;58109;53.570;10.084;2022-08-14T12:00:54;14.93;;;6.90;;
70560;SDS011;58109;53.570;10.084;2022-08-14T12:03:33;11.00;;;6.57;;
70560;SDS011;58109;53.570;10.084;2022-08-14T19:45:45;14.37;;;4.00;;
70560;SDS011;58109;53.570;10.084;2022-08-14T19:48:19;14.90;;;4.30;;
70560;SDS011;58109;53.570;10.084;2022-08-14T19:50:45;11.83;;;4.10;;
70560;SDS011;58109;53.570;10.084;2022-08-14T19:53:13;12.27;;;4.60;;
70560;SDS011;58109;53.570;10.084;2022-08-14T19:55:39;7.60;;;3.77;;
70560;SDS011;58109;53.570;10.084;2022-08-14T19:58:06;16.73;;;3.80;;
70560;SDS011;58109;53.570;10.084;2022-08-14T20:00:35;26.10;;;4.03;;
70560;SDS011;58109;53.570;10.084;2022-08-14T20:03:03;13.23;;;4.47;;
70560;SDS011;58109;53.570;10.084;2022-08-14T20:05:32;7.50;;;3.93;;
70560;SDS011;58109;53.570;10.084;2022-08-14T20:08:01;21.83;;;5.27;;
70560;SDS011;58109;53.570;10.084;2022-08-14T20:10:28;10.83;;;4.53;;
70560;SDS011;58109;53.570;10.084;2022-08-14T20:12:59;10.17;;;4.13;;
70560;SDS011;58109;53.570;10.084;2022-08-14T20:15:28;7.30;;;3.40;;
70560;SDS011;58109;53.570;10.084;2022-08-14T20:17:56;9.50;;;3.80;;
70560;SDS011;58109;53.570;10.084;2022-08-14T20:20:22;8.67;;;3.50;;
70560;SDS011;58109;53.570;10.084;2022-08-14T20:22:48;7.50;;;4.20;;
70560;SDS011;58109;53.570;10.084;2022-08-14T20:25:14;9.67;;;3.77;;
70560;SDS011;58109;53.570;10.084;2022-08-14T20:27:46;13.20;;;4.23;;
70560;SDS011;58109;53.570;10.084;2022-08-14T20:30:22;13.63;;;3.93;;
70560;SDS011;58109;53.570;10.084;2022-08-14T20:35:24;25.83;;;5.03;;
70560;SDS011;58109;53.570;10.084;2022-08-14T20:37:55;18.13;;;4.53;;
70560;SDS011;58109;53.570;10.084;2022-08-14T20:40:25;17.37;;;4.07;;
70560;SDS011;58109;53.570;10.084;2022-08-14T20:42:52;8.93;;;3.63;;
70560;SDS011;58109;53.570;10.084;2022-08-14T20:45:50;8.60;;;3.50;;
70560;SDS011;58109;53.570;10.084;2022-08-14T20:48:23;11.97;;;4.07;;
70560;SDS011;58109;53.570;10.084;2022-08-14T20:50:49;5.30;;;3.10;;
70560;SDS011;58109;53.570;10.084;2022-08-14T20:53:32;12.67;;;3.63;;
70560;SDS011;58109;53.570;10.084;2022-08-14T20:56:18;11.53;;;3.30;;
70560;SDS011;58109;53.570;10.084;2022-08-14T20:58:47;10.97;;;3.00;;
70560;SDS011;58109;53.570;10.084;2022-08-14T21:06:14;13.43;;;3.37;;
70560;SDS011;58109;53.570;10.084;2022-08-14T21:08:47;12.30;;;3.70;;
70560;SDS011;58109;53.570;10.084;2022-08-14T21:11:15;19.63;;;4.07;;
70560;SDS011;58109;53.570;10.084;2022-08-14T21:13:43;7.07;;;3.37;;
70560;SDS011;58109;53.570;10.084;2022-08-14T21:16:14;8.90;;;3.90;;
70560;SDS011;58109;53.570;10.084;2022-08-14T21:18:44;14.53;;;4.20;;
70560;SDS011;58109;53.570;10.084;2022-08-14T21:21:11;12.33;;;4.60;;
70560;SDS011;58109;53.570;10.084;2022-08-14T21:23:40;7.63;;;3.83;;
70560;SDS011;58109;53.570;10.084;2022-08-14T21:26:07;17.20;;;3.87;;
70560;SDS011;58109;53.570;10.084;2022-08-14T21:28:33;8.87;;;3.90;;
70560;SDS011;58109;53.570;10.084;2022-08-14T21:31:02;6.23;;;3.80;;
70560;SDS011;58109;53.570;10.084;2022-08-14T21:33:28;17.70;;;4.73;;
70560;SDS011;58109;53.570;10.084;2022-08-14T21:35:58;9.13;;;3.87;;
70560;SDS011;58109;53.570;10.084;2022-08-14T21:38:25;10.10;;;4.10;;
70560;SDS011;58109;53.570;10.084;2022-08-14T21:40:51;12.93;;;3.90;;
70560;SDS011;58109;53.570;10.084;2022-08-14T21:43:19;8.37;;;3.13;;
70560;SDS011;58109;53.570;10.084;2022-08-14T21:45:47;7.33;;;3.93;;
70560;SDS011;58109;53.570;10.084;2022-08-14T21:48:16;8.80;;;3.80;;
70560;SDS011;58109;53.570;10.084;2022-08-14T21:50:45;13.53;;;4.60;;
70560;SDS011;58109;53.570;10.084;2022-08-14T21:53:15;37.57;;;5.53;;
70560;SDS011;58109;53.570;10.084;2022-08-14T21:55:41;12.17;;;4.43;;
70560;SDS011;58109;53.570;10.084;2022-08-14T21:58:10;6.40;;;4.30;;
70560;SDS011;58109;53.570;10.084;2022-08-14T22:00:36;9.73;;;4.40;;
70560;SDS011;58109;53.570;10.084;2022-08-14T22:03:09;5.30;;;3.70;;
70560;SDS011;58109;53.570;10.084;2022-08-14T22:05:37;12.77;;;4.77;;
70560;SDS011;58109;53.570;10.084;2022-08-14T22:08:03;10.83;;;4.30;;
70560;SDS011;58109;53.570;10.084;2022-08-14T22:10:30;10.20;;;4.30;;
70560;SDS011;58109;53.570;10.084;2022-08-14T22:12:58;13.93;;;4.60;;
70560;SDS011;58109;53.570;10.084;2022-08-14T22:15:24;11.33;;;4.47;;
70560;SDS011;58109;53.570;10.084;2022-08-14T22:17:49;7.90;;;4.47;;
70560;SDS011;58109;53.570;10.084;2022-08-14T22:20:15;11.23;;;4.63;;
70560;SDS011;58109;53.570;10.084;2022-08-14T22:22:41;10.33;;;5.33;;
70560;SDS011;58109;53.570;10.084;2022-08-14T22:25:10;18.83;;;5.80;;
70560;SDS011;58109;53.570;10.084;2022-08-14T22:27:37;19.13;;;4.57;;
70560;SDS011;58109;53.570;10.084;2022-08-14T22:30:07;16.43;;;5.23;;
70560;SDS011;58109;53.570;10.084;2022-08-14T22:32:36;9.80;;;4.93;;
70560;SDS011;58109;53.570;10.084;2022-08-14T22:35:03;12.50;;;5.37;;
70560;SDS011;58109;53.570;10.084;2022-08-14T22:37:31;9.80;;;5.27;;
70560;SDS011;58109;53.570;10.084;2022-08-14T22:39:56;14.43;;;5.07;;
70560;SDS011;58109;53.570;10.084;2022-08-14T22:42:22;16.70;;;5.50;;
70560;SDS011;58109;53.570;10.084;2022-08-14T22:44:49;13.73;;;5.60;;
70560;SDS011;58109;53.570;10.084;2022-08-14T22:47:16;8.70;;;4.57;;
70560;SDS011;58109;53.570;10.084;2022-08-14T22:49:43;11.77;;;5.37;;
70560;SDS011;58109;53.570;10.084;2022-08-14T22:52:09;6.87;;;5.60;;
70560;SDS011;58109;53.570;10.084;2022-08-14T22:54:34;17.50;;;5.40;;
70560;SDS011;58109;53.570;10.084;2022-08-14T22:57:01;13.03;;;5.53;;
70560;SDS011;58109;53.570;10.084;2022-08-14T22:59:33;10.90;;;5.73;;
70560;SDS011;58109;53.570;10.084;2022-08-14T23:04:30;12.43;;;5.97;;
70560;SDS011;58109;53.570;10.084;2022-08-14T23:06:56;8.90;;;5.13;;